sensor_id;sensor_type;location;lat;lon;timestamp;temperature;humidity
1063;DHT22;520;50.932;6.962;2023-02-04T00:01:59;10.40;99.90
1063;DHT22;520;50.932;6.962;2023-02-04T00:04:26;10.40;99.90
1063;DHT22;520;50.932;6.962;2023-02-04T00:06:52;10.40;99.90
1063;DHT22;520;50.932;6.962;2023-02-04T00:09:19;10.30;99.90
1063;DHT22;520;50.932;6.962;2023-02-04T00:11:45;10.30;99.90
1063;DHT22;520;50.932;6.962;2023-02-04T00:14:12;10.40;99.90
1063;DHT22;520;50.932;6.962;2023-02-04T00:16:38;10.60;99.90
1063;DHT22;520;50.932;6.962;2023-02-04T00:19:05;10.50;99.90
1063;DHT22;520;50.932;6.962;2023-02-04T00:21:32;10.40;99.90
1063;DHT22;520;50.932;6.962;2023-02-04T00:23:58;10.40;99.90
1063;DHT22;520;50.932;6.962;2023-02-04T00:26:25;10.50;99.90
1063;DHT22;520;50.932;6.962;2023-02-04T00:28:51;10.40;99.90
1063;DHT22;520;50.932;6.962;2023-02-04T00:31:18;10.50;99.90
1063;DHT22;520;50.932;6.962;2023-02-04T00:33:45;10.40;99.90
1063;DHT22;520;50.932;6.962;2023-02-04T00:36:11;10.60;99.90
1063;DHT22;520;50.932;6.962;2023-02-04T00:38:38;10.60;99.90
1063;DHT22;520;50.932;6.962;2023-02-04T00:41:05;10.60;99.90
1063;DHT22;520;50.932;6.962;2023-02-04T00:43:32;10.60;99.90
1063;DHT22;520;50.932;6.962;2023-02-04T00:45:59;10.40;99.90
1063;DHT22;520;50.932;6.962;2023-02-04T00:48:26;10.60;99.90
1063;DHT22;520;50.932;6.962;2023-02-04T00:50:52;10.50;99.90
1063;DHT22;520;50.932;6.962;2023-02-04T00:53:20;10.50;99.90
1063;DHT22;520;50.932;6.962;2023-02-04T00:55:47;10.40;99.90
1063;DHT22;520;50.932;6.962;2023-02-04T00:58:13;10.40;99.90
1063;DHT22;520;50.932;6.962;2023-02-04T01:00:40;10.30;99.90
1063;DHT22;520;50.932;6.962;2023-02-04T01:03:07;10.30;99.90
1063;DHT22;520;50.932;6.962;2023-02-04T01:05:34;10.30;99.90
1063;DHT22;520;50.932;6.962;2023-02-04T01:08:00;10.20;99.90
1063;DHT22;520;50.932;6.962;2023-02-04T01:10:27;10.20;99.90
1063;DHT22;520;50.932;6.962;2023-02-04T01:12:55;10.20;99.90
1063;DHT22;520;50.932;6.962;2023-02-04T01:15:21;10.40;99.90
1063;DHT22;520;50.932;6.962;2023-02-04T01:17:51;10.40;99.90
1063;DHT22;520;50.932;6.962;2023-02-04T01:20:18;10.30;99.90
1063;DHT22;520;50.932;6.962;2023-02-04T01:22:48;10.30;99.90
1063;DHT22;520;50.932;6.962;2023-02-04T01:25:15;10.20;99.90
1063;DHT22;520;50.932;6.962;2023-02-04T01:27:43;10.30;99.90
1063;DHT22;520;50.932;6.962;2023-02-04T01:30:14;10.20;99.90
1063;DHT22;520;50.932;6.962;2023-02-04T01:32:40;10.20;99.90
1063;DHT22;520;50.932;6.962;2023-02-04T01:35:07;10.10;99.90
1063;DHT22;520;50.932;6.962;2023-02-04T01:37:34;10.10;99.90
1063;DHT22;520;50.932;6.962;2023-02-04T01:40:01;10.20;99.90
1063;DHT22;520;50.932;6.962;2023-02-04T01:42:27;10.20;99.90
1063;DHT22;520;50.932;6.962;2023-02-04T01:44:54;10.20;99.90
1063;DHT22;520;50.932;6.962;2023-02-04T01:47:21;10.30;99.90
1063;DHT22;520;50.932;6.962;2023-02-04T01:49:51;10.20;99.90
1063;DHT22;520;50.932;6.962;2023-02-04T01:52:18;10.20;99.90
1063;DHT22;520;50.932;6.962;2023-02-04T01:54:45;10.20;99.90
1063;DHT22;520;50.932;6.962;2023-02-04T01:57:14;10.20;99.90
1063;DHT22;520;50.932;6.962;2023-02-04T01:59:45;10.40;99.90
1063;DHT22;520;50.932;6.962;2023-02-04T02:05:10;10.30;99.90
1063;DHT22;520;50.932;6.962;2023-02-04T02:07:38;10.30;99.90
1063;DHT22;520;50.932;6.962;2023-02-04T02:10:07;10.20;99.90
1063;DHT22;520;50.932;6.962;2023-02-04T02:12:36;10.20;99.90
1063;DHT22;520;50.932;6.962;2023-02-04T02:15:04;10.10;99.90
1063;DHT22;520;50.932;6.962;2023-02-04T02:17:31;10.00;99.90
1063;DHT22;520;50.932;6.962;2023-02-04T02:19:59;10.10;99.90
1063;DHT22;520;50.932;6.962;2023-02-04T02:25:09;10.20;99.90
1063;DHT22;520;50.932;6.962;2023-02-04T02:27:36;10.10;99.90
1063;DHT22;520;50.932;6.962;2023-02-04T02:30:03;10.00;99.90
1063;DHT22;520;50.932;6.962;2023-02-04T02:32:31;9.90;99.90
1063;DHT22;520;50.932;6.962;2023-02-04T02:34:58;10.00;99.90
1063;DHT22;520;50.932;6.962;2023-02-04T02:37:24;10.10;99.90
1063;DHT22;520;50.932;6.962;2023-02-04T02:39:51;10.10;99.90
1063;DHT22;520;50.932;6.962;2023-02-04T02:42:19;10.00;99.90
1063;DHT22;520;50.932;6.962;2023-02-04T02:44:47;10.00;99.90
1063;DHT22;520;50.932;6.962;2023-02-04T02:47:16;9.90;99.90
1063;DHT22;520;50.932;6.962;2023-02-04T02:49:46;9.90;99.90
1063;DHT22;520;50.932;6.962;2023-02-04T02:52:14;9.90;99.90
1063;DHT22;520;50.932;6.962;2023-02-04T02:54:41;9.80;99.90
1063;DHT22;520;50.932;6.962;2023-02-04T02:57:16;9.80;99.90
1063;DHT22;520;50.932;6.962;2023-02-04T02:59:45;9.80;99.90
1063;DHT22;520;50.932;6.962;2023-02-04T03:02:13;9.80;99.90
1063;DHT22;520;50.932;6.962;2023-02-04T03:04:48;9.70;99.90
1063;DHT22;520;50.932;6.962;2023-02-04T03:07:18;9.80;99.90
1063;DHT22;520;50.932;6.962;2023-02-04T03:09:46;9.70;99.90
1063;DHT22;520;50.932;6.962;2023-02-04T03:12:14;9.80;99.90
1063;DHT22;520;50.932;6.962;2023-02-04T03:14:40;9.80;99.90
1063;DHT22;520;50.932;6.962;2023-02-04T03:17:08;9.80;99.90
1063;DHT22;520;50.932;6.962;2023-02-04T03:19:36;9.80;99.90
1063;DHT22;520;50.932;6.962;2023-02-04T03:22:05;9.80;99.90
1063;DHT22;520;50.932;6.962;2023-02-04T03:24:33;9.80;99.90
1063;DHT22;520;50.932;6.962;2023-02-04T03:27:00;9.80;99.90
1063;DHT22;520;50.932;6.962;2023-02-04T03:29:27;9.70;99.90
1063;DHT22;520;50.932;6.962;2023-02-04T03:31:55;9.60;99.90
1063;DHT22;520;50.932;6.962;2023-02-04T03:34:25;9.70;99.90
1063;DHT22;520;50.932;6.962;2023-02-04T03:36:52;9.60;99.90
1063;DHT22;520;50.932;6.962;2023-02-04T03:39:19;9.70;99.90
1063;DHT22;520;50.932;6.962;2023-02-04T03:41:46;9.70;99.90
1063;DHT22;520;50.932;6.962;2023-02-04T03:44:13;9.70;99.90
1063;DHT22;520;50.932;6.962;2023-02-04T03:46:39;9.70;99.90
1063;DHT22;520;50.932;6.962;2023-02-04T03:49:06;9.70;99.90
1063;DHT22;520;50.932;6.962;2023-02-04T03:51:33;9.80;99.90
1063;DHT22;520;50.932;6.962;2023-02-04T03:54:00;9.80;99.90
1063;DHT22;520;50.932;6.962;2023-02-04T03:56:27;9.80;99.90
1063;DHT22;520;50.932;6.962;2023-02-04T03:58:54;9.80;99.90
1063;DHT22;520;50.932;6.962;2023-02-04T04:01:21;9.80;99.90
1063;DHT22;520;50.932;6.962;2023-02-04T04:03:47;9.80;99.90
1063;DHT22;520;50.932;6.962;2023-02-04T04:06:14;9.80;99.90
1063;DHT22;520;50.932;6.962;2023-02-04T04:08:41;9.90;99.90
1063;DHT22;520;50.932;6.962;2023-02-04T04:11:08;10.30;99.90
1063;DHT22;520;50.932;6.962;2023-02-04T04:13:35;10.10;99.90
1063;DHT22;520;50.932;6.962;2023-02-04T04:16:02;10.00;99.90
1063;DHT22;520;50.932;6.962;2023-02-04T04:18:31;10.00;99.90
1063;DHT22;520;50.932;6.962;2023-02-04T04:20:58;9.80;99.90
1063;DHT22;520;50.932;6.962;2023-02-04T04:23:25;9.80;99.90
1063;DHT22;520;50.932;6.962;2023-02-04T04:25:51;9.70;99.90
1063;DHT22;520;50.932;6.962;2023-02-04T04:28:18;9.70;99.90
1063;DHT22;520;50.932;6.962;2023-02-04T04:30:45;9.70;99.90
1063;DHT22;520;50.932;6.962;2023-02-04T04:33:12;9.70;99.90
1063;DHT22;520;50.932;6.962;2023-02-04T04:35:39;9.60;99.90
1063;DHT22;520;50.932;6.962;2023-02-04T04:38:06;9.60;99.90
1063;DHT22;520;50.932;6.962;2023-02-04T04:40:33;9.60;99.90
1063;DHT22;520;50.932;6.962;2023-02-04T04:43:00;9.60;99.90
1063;DHT22;520;50.932;6.962;2023-02-04T04:45:26;9.60;99.90
1063;DHT22;520;50.932;6.962;2023-02-04T04:47:53;9.60;99.90
1063;DHT22;520;50.932;6.962;2023-02-04T04:50:20;9.60;99.90
1063;DHT22;520;50.932;6.962;2023-02-04T04:52:46;9.60;99.90
1063;DHT22;520;50.932;6.962;2023-02-04T04:55:13;9.60;99.90
1063;DHT22;520;50.932;6.962;2023-02-04T04:57:40;9.50;99.90
1063;DHT22;520;50.932;6.962;2023-02-04T05:00:07;9.60;99.90
1063;DHT22;520;50.932;6.962;2023-02-04T05:02:33;9.60;99.90
1063;DHT22;520;50.932;6.962;2023-02-04T05:05:00;9.60;99.90
1063;DHT22;520;50.932;6.962;2023-02-04T05:07:27;9.60;99.90
1063;DHT22;520;50.932;6.962;2023-02-04T05:09:53;9.60;99.90
1063;DHT22;520;50.932;6.962;2023-02-04T05:12:20;9.60;99.90
1063;DHT22;520;50.932;6.962;2023-02-04T05:14:47;9.60;99.90
1063;DHT22;520;50.932;6.962;2023-02-04T05:17:13;9.60;99.90
1063;DHT22;520;50.932;6.962;2023-02-04T05:19:40;9.60;99.90
1063;DHT22;520;50.932;6.962;2023-02-04T05:22:06;9.70;99.90
1063;DHT22;520;50.932;6.962;2023-02-04T05:24:33;9.80;99.90
1063;DHT22;520;50.932;6.962;2023-02-04T05:26:59;9.90;99.90
1063;DHT22;520;50.932;6.962;2023-02-04T05:29:26;9.80;99.90
1063;DHT22;520;50.932;6.962;2023-02-04T05:31:53;9.80;99.90
1063;DHT22;520;50.932;6.962;2023-02-04T05:34:20;9.80;99.90
1063;DHT22;520;50.932;6.962;2023-02-04T05:36:48;9.70;99.90
1063;DHT22;520;50.932;6.962;2023-02-04T05:39:15;9.60;99.90
1063;DHT22;520;50.932;6.962;2023-02-04T05:41:42;9.50;99.90
1063;DHT22;520;50.932;6.962;2023-02-04T05:44:08;9.50;99.90
1063;DHT22;520;50.932;6.962;2023-02-04T05:46:35;9.50;99.90
1063;DHT22;520;50.932;6.962;2023-02-04T05:49:03;9.40;99.90
1063;DHT22;520;50.932;6.962;2023-02-04T05:51:30;9.40;99.90
1063;DHT22;520;50.932;6.962;2023-02-04T05:53:56;9.40;99.90
1063;DHT22;520;50.932;6.962;2023-02-04T05:56:23;9.40;99.90
1063;DHT22;520;50.932;6.962;2023-02-04T05:58:51;9.40;99.90
1063;DHT22;520;50.932;6.962;2023-02-04T06:01:19;9.40;99.90
1063;DHT22;520;50.932;6.962;2023-02-04T06:03:45;9.30;99.90
1063;DHT22;520;50.932;6.962;2023-02-04T06:06:13;9.40;99.90
1063;DHT22;520;50.932;6.962;2023-02-04T06:08:40;9.40;99.90
1063;DHT22;520;50.932;6.962;2023-02-04T06:11:07;9.40;99.90
1063;DHT22;520;50.932;6.962;2023-02-04T06:13:33;9.40;99.90
1063;DHT22;520;50.932;6.962;2023-02-04T06:16:00;9.40;99.90
1063;DHT22;520;50.932;6.962;2023-02-04T06:18:27;9.40;99.90
1063;DHT22;520;50.932;6.962;2023-02-04T06:20:54;9.40;99.90
1063;DHT22;520;50.932;6.962;2023-02-04T06:23:21;9.40;99.90
1063;DHT22;520;50.932;6.962;2023-02-04T06:25:48;9.30;99.90
1063;DHT22;520;50.932;6.962;2023-02-04T06:28:16;9.40;99.90
1063;DHT22;520;50.932;6.962;2023-02-04T06:30:43;9.40;99.90
1063;DHT22;520;50.932;6.962;2023-02-04T06:33:10;9.30;99.90
1063;DHT22;520;50.932;6.962;2023-02-04T06:35:37;9.30;99.90
1063;DHT22;520;50.932;6.962;2023-02-04T06:38:04;9.30;99.90
1063;DHT22;520;50.932;6.962;2023-02-04T06:40:31;9.30;99.90
1063;DHT22;520;50.932;6.962;2023-02-04T06:42:58;9.30;99.90
1063;DHT22;520;50.932;6.962;2023-02-04T06:45:26;9.50;99.90
1063;DHT22;520;50.932;6.962;2023-02-04T06:47:53;9.40;99.90
1063;DHT22;520;50.932;6.962;2023-02-04T06:50:20;9.40;99.90
1063;DHT22;520;50.932;6.962;2023-02-04T06:52:47;9.40;99.90
1063;DHT22;520;50.932;6.962;2023-02-04T06:55:16;9.40;99.90
1063;DHT22;520;50.932;6.962;2023-02-04T06:57:43;9.30;99.90
1063;DHT22;520;50.932;6.962;2023-02-04T07:00:10;9.30;99.90
1063;DHT22;520;50.932;6.962;2023-02-04T07:02:37;9.30;99.90
1063;DHT22;520;50.932;6.962;2023-02-04T07:05:05;9.30;99.90
1063;DHT22;520;50.932;6.962;2023-02-04T07:07:34;9.30;99.90
1063;DHT22;520;50.932;6.962;2023-02-04T07:10:03;9.30;99.90
1063;DHT22;520;50.932;6.962;2023-02-04T07:12:30;9.40;99.90
1063;DHT22;520;50.932;6.962;2023-02-04T07:14:57;9.40;99.90
1063;DHT22;520;50.932;6.962;2023-02-04T07:17:25;9.50;99.90
1063;DHT22;520;50.932;6.962;2023-02-04T07:19:52;9.40;99.90
1063;DHT22;520;50.932;6.962;2023-02-04T07:22:19;9.30;99.90
1063;DHT22;520;50.932;6.962;2023-02-04T07:24:46;9.40;99.90
1063;DHT22;520;50.932;6.962;2023-02-04T07:27:13;9.30;99.90
1063;DHT22;520;50.932;6.962;2023-02-04T07:29:40;9.30;99.90
1063;DHT22;520;50.932;6.962;2023-02-04T07:32:07;9.20;99.90
1063;DHT22;520;50.932;6.962;2023-02-04T07:34:34;9.30;99.90
1063;DHT22;520;50.932;6.962;2023-02-04T07:37:01;9.30;99.90
1063;DHT22;520;50.932;6.962;2023-02-04T07:39:28;9.30;99.90
1063;DHT22;520;50.932;6.962;2023-02-04T07:41:55;9.30;99.90
1063;DHT22;520;50.932;6.962;2023-02-04T07:44:22;9.30;99.90
1063;DHT22;520;50.932;6.962;2023-02-04T07:46:49;9.30;99.90
1063;DHT22;520;50.932;6.962;2023-02-04T07:49:17;9.50;99.90
1063;DHT22;520;50.932;6.962;2023-02-04T07:51:44;9.60;99.90
1063;DHT22;520;50.932;6.962;2023-02-04T07:54:10;9.50;99.90
1063;DHT22;520;50.932;6.962;2023-02-04T07:56:37;9.50;99.90
1063;DHT22;520;50.932;6.962;2023-02-04T07:59:04;9.50;99.90
1063;DHT22;520;50.932;6.962;2023-02-04T08:01:31;9.50;99.90
1063;DHT22;520;50.932;6.962;2023-02-04T08:03:58;9.60;99.90
1063;DHT22;520;50.932;6.962;2023-02-04T08:06:25;9.50;99.90
1063;DHT22;520;50.932;6.962;2023-02-04T08:08:52;9.50;99.90
1063;DHT22;520;50.932;6.962;2023-02-04T08:11:19;9.60;99.90
1063;DHT22;520;50.932;6.962;2023-02-04T08:13:46;9.50;99.90
1063;DHT22;520;50.932;6.962;2023-02-04T08:16:13;9.50;99.90
1063;DHT22;520;50.932;6.962;2023-02-04T08:18:40;9.50;99.90
1063;DHT22;520;50.932;6.962;2023-02-04T08:21:06;9.50;99.90
1063;DHT22;520;50.932;6.962;2023-02-04T08:23:34;9.50;99.90
1063;DHT22;520;50.932;6.962;2023-02-04T08:26:01;9.50;99.90
1063;DHT22;520;50.932;6.962;2023-02-04T08:28:30;9.60;99.90
1063;DHT22;520;50.932;6.962;2023-02-04T08:30:57;9.70;99.90
1063;DHT22;520;50.932;6.962;2023-02-04T08:33:24;9.70;99.90
1063;DHT22;520;50.932;6.962;2023-02-04T08:35:51;9.80;99.90
1063;DHT22;520;50.932;6.962;2023-02-04T08:38:18;9.90;99.90
1063;DHT22;520;50.932;6.962;2023-02-04T08:40:45;10.00;99.90
1063;DHT22;520;50.932;6.962;2023-02-04T08:43:12;10.00;99.90
1063;DHT22;520;50.932;6.962;2023-02-04T08:45:39;10.10;99.90
1063;DHT22;520;50.932;6.962;2023-02-04T08:48:06;10.00;99.90
1063;DHT22;520;50.932;6.962;2023-02-04T08:50:35;10.00;99.90
1063;DHT22;520;50.932;6.962;2023-02-04T08:53:04;9.90;99.90
1063;DHT22;520;50.932;6.962;2023-02-04T08:55:31;9.90;99.90
1063;DHT22;520;50.932;6.962;2023-02-04T08:57:57;9.90;99.90
1063;DHT22;520;50.932;6.962;2023-02-04T09:00:25;9.90;99.90
1063;DHT22;520;50.932;6.962;2023-02-04T09:02:51;9.90;99.90
1063;DHT22;520;50.932;6.962;2023-02-04T09:05:19;9.90;99.90
1063;DHT22;520;50.932;6.962;2023-02-04T09:07:46;9.90;99.90
1063;DHT22;520;50.932;6.962;2023-02-04T09:10:12;10.00;99.90
1063;DHT22;520;50.932;6.962;2023-02-04T09:12:39;10.10;99.90
1063;DHT22;520;50.932;6.962;2023-02-04T09:15:09;10.00;99.90
1063;DHT22;520;50.932;6.962;2023-02-04T09:17:37;10.00;99.90
1063;DHT22;520;50.932;6.962;2023-02-04T09:20:05;10.00;99.90
1063;DHT22;520;50.932;6.962;2023-02-04T09:22:32;10.00;99.90
1063;DHT22;520;50.932;6.962;2023-02-04T09:24:58;10.10;99.90
1063;DHT22;520;50.932;6.962;2023-02-04T09:27:25;10.10;99.90
1063;DHT22;520;50.932;6.962;2023-02-04T09:29:52;10.10;99.90
1063;DHT22;520;50.932;6.962;2023-02-04T09:32:19;10.20;99.90
1063;DHT22;520;50.932;6.962;2023-02-04T09:34:46;10.20;99.90
1063;DHT22;520;50.932;6.962;2023-02-04T09:37:13;10.30;99.90
1063;DHT22;520;50.932;6.962;2023-02-04T09:39:40;10.40;99.90
1063;DHT22;520;50.932;6.962;2023-02-04T09:42:11;11.00;99.90
1063;DHT22;520;50.932;6.962;2023-02-04T09:44:41;11.10;99.90
1063;DHT22;520;50.932;6.962;2023-02-04T09:47:10;11.00;99.90
1063;DHT22;520;50.932;6.962;2023-02-04T09:49:38;10.90;99.90
1063;DHT22;520;50.932;6.962;2023-02-04T09:52:10;11.10;99.90
1063;DHT22;520;50.932;6.962;2023-02-04T09:54:38;11.00;99.90
1063;DHT22;520;50.932;6.962;2023-02-04T09:57:17;10.80;99.90
1063;DHT22;520;50.932;6.962;2023-02-04T09:59:45;10.70;99.90
1063;DHT22;520;50.932;6.962;2023-02-04T10:02:21;10.60;99.90
1063;DHT22;520;50.932;6.962;2023-02-04T10:04:50;10.60;99.90
1063;DHT22;520;50.932;6.962;2023-02-04T10:07:20;10.70;99.90
1063;DHT22;520;50.932;6.962;2023-02-04T10:09:54;11.10;99.90
1063;DHT22;520;50.932;6.962;2023-02-04T10:12:21;11.30;99.90
1063;DHT22;520;50.932;6.962;2023-02-04T10:14:49;11.00;99.90
1063;DHT22;520;50.932;6.962;2023-02-04T10:17:19;10.90;99.90
1063;DHT22;520;50.932;6.962;2023-02-04T10:19:51;10.70;99.90
1063;DHT22;520;50.932;6.962;2023-02-04T10:22:20;10.60;99.90
1063;DHT22;520;50.932;6.962;2023-02-04T10:24:48;10.70;99.90
1063;DHT22;520;50.932;6.962;2023-02-04T10:27:16;10.70;99.90
1063;DHT22;520;50.932;6.962;2023-02-04T10:29:56;10.80;99.90
1063;DHT22;520;50.932;6.962;2023-02-04T10:32:32;10.80;99.90
1063;DHT22;520;50.932;6.962;2023-02-04T10:35:01;10.70;99.90
1063;DHT22;520;50.932;6.962;2023-02-04T10:37:29;11.00;99.90
1063;DHT22;520;50.932;6.962;2023-02-04T10:39:57;11.00;99.90
1063;DHT22;520;50.932;6.962;2023-02-04T10:42:28;10.90;99.90
1063;DHT22;520;50.932;6.962;2023-02-04T10:44:57;10.90;99.90
1063;DHT22;520;50.932;6.962;2023-02-04T10:47:26;10.70;99.90
1063;DHT22;520;50.932;6.962;2023-02-04T10:50:13;10.60;99.90
1063;DHT22;520;50.932;6.962;2023-02-04T10:52:44;10.50;99.90
1063;DHT22;520;50.932;6.962;2023-02-04T10:55:15;10.40;99.90
1063;DHT22;520;50.932;6.962;2023-02-04T10:57:46;10.40;99.90
1063;DHT22;520;50.932;6.962;2023-02-04T11:03:11;10.40;99.90
1063;DHT22;520;50.932;6.962;2023-02-04T11:16:50;10.50;99.90
1063;DHT22;520;50.932;6.962;2023-02-04T11:19:40;10.40;99.90
1063;DHT22;520;50.932;6.962;2023-02-04T11:26:33;10.40;99.90
1063;DHT22;520;50.932;6.962;2023-02-04T11:30:16;10.50;99.90
1063;DHT22;520;50.932;6.962;2023-02-04T11:42:18;10.60;99.90
1063;DHT22;520;50.932;6.962;2023-02-04T11:45:31;10.50;99.90
1063;DHT22;520;50.932;6.962;2023-02-04T11:48:38;10.60;99.90
1063;DHT22;520;50.932;6.962;2023-02-04T11:51:45;10.60;99.90
1063;DHT22;520;50.932;6.962;2023-02-04T12:01:50;10.70;99.80
1063;DHT22;520;50.932;6.962;2023-02-04T12:07:51;10.90;99.60
1063;DHT22;520;50.932;6.962;2023-02-04T12:10:38;10.90;99.20
1063;DHT22;520;50.932;6.962;2023-02-04T12:13:48;10.90;99.00
1063;DHT22;520;50.932;6.962;2023-02-04T12:16:50;11.00;98.70
1063;DHT22;520;50.932;6.962;2023-02-04T12:19:19;11.10;98.60
1063;DHT22;520;50.932;6.962;2023-02-04T12:22:10;11.10;98.50
1063;DHT22;520;50.932;6.962;2023-02-04T12:25:04;11.10;98.30
1063;DHT22;520;50.932;6.962;2023-02-04T12:28:34;11.10;98.30
1063;DHT22;520;50.932;6.962;2023-02-04T12:31:29;11.20;98.40
1063;DHT22;520;50.932;6.962;2023-02-04T12:34:35;11.50;98.30
1063;DHT22;520;50.932;6.962;2023-02-04T12:49:26;11.40;96.80
1063;DHT22;520;50.932;6.962;2023-02-04T12:52:34;11.40;96.80
1063;DHT22;520;50.932;6.962;2023-02-04T12:56:03;11.30;96.50
1063;DHT22;520;50.932;6.962;2023-02-04T13:02:41;11.30;96.50
1063;DHT22;520;50.932;6.962;2023-02-04T13:05:17;11.50;96.90
1063;DHT22;520;50.932;6.962;2023-02-04T13:08:00;11.50;96.70
1063;DHT22;520;50.932;6.962;2023-02-04T13:10:31;11.50;96.30
1063;DHT22;520;50.932;6.962;2023-02-04T13:13:17;11.60;96.20
1063;DHT22;520;50.932;6.962;2023-02-04T13:16:21;11.60;95.70
1063;DHT22;520;50.932;6.962;2023-02-04T13:22:09;12.00;95.20
1063;DHT22;520;50.932;6.962;2023-02-04T13:24:59;12.60;94.10
1063;DHT22;520;50.932;6.962;2023-02-04T13:27:50;13.00;91.20
1063;DHT22;520;50.932;6.962;2023-02-04T13:30:29;12.90;90.70
1063;DHT22;520;50.932;6.962;2023-02-04T13:33:24;12.70;90.90
1063;DHT22;520;50.932;6.962;2023-02-04T13:36:17;12.60;91.60
1063;DHT22;520;50.932;6.962;2023-02-04T13:38:52;12.50;91.70
1063;DHT22;520;50.932;6.962;2023-02-04T13:41:33;12.50;92.10
1063;DHT22;520;50.932;6.962;2023-02-04T13:44:21;12.50;91.90
1063;DHT22;520;50.932;6.962;2023-02-04T13:47:07;12.30;92.30
1063;DHT22;520;50.932;6.962;2023-02-04T13:49:50;12.30;92.60
1063;DHT22;520;50.932;6.962;2023-02-04T13:52:22;12.00;93.00
1063;DHT22;520;50.932;6.962;2023-02-04T13:55:06;11.90;93.50
1063;DHT22;520;50.932;6.962;2023-02-04T13:58:13;11.80;93.20
1063;DHT22;520;50.932;6.962;2023-02-04T14:00:58;12.30;92.30
1063;DHT22;520;50.932;6.962;2023-02-04T14:03:41;12.40;91.90
1063;DHT22;520;50.932;6.962;2023-02-04T14:06:29;12.60;90.80
1063;DHT22;520;50.932;6.962;2023-02-04T14:10:11;12.40;90.10
1063;DHT22;520;50.932;6.962;2023-02-04T14:13:04;12.20;90.20
1063;DHT22;520;50.932;6.962;2023-02-04T14:15:47;11.80;91.20
1063;DHT22;520;50.932;6.962;2023-02-04T14:18:52;12.10;91.70
1063;DHT22;520;50.932;6.962;2023-02-04T14:21:38;12.20;91.60
1063;DHT22;520;50.932;6.962;2023-02-04T14:24:26;12.10;91.50
1063;DHT22;520;50.932;6.962;2023-02-04T14:27:10;12.10;91.70
1063;DHT22;520;50.932;6.962;2023-02-04T14:30:26;12.20;91.70
1063;DHT22;520;50.932;6.962;2023-02-04T14:33:28;12.20;91.60
1063;DHT22;520;50.932;6.962;2023-02-04T14:36:02;12.10;92.00
1063;DHT22;520;50.932;6.962;2023-02-04T14:39:06;12.10;92.30
1063;DHT22;520;50.932;6.962;2023-02-04T14:45:16;12.20;93.40
1063;DHT22;520;50.932;6.962;2023-02-04T14:48:20;11.90;93.70
1063;DHT22;520;50.932;6.962;2023-02-04T14:51:13;11.60;94.20
1063;DHT22;520;50.932;6.962;2023-02-04T14:53:50;11.80;94.30
1063;DHT22;520;50.932;6.962;2023-02-04T14:56:26;11.90;94.40
1063;DHT22;520;50.932;6.962;2023-02-04T14:59:04;11.90;94.20
1063;DHT22;520;50.932;6.962;2023-02-04T15:05:07;11.60;94.30
1063;DHT22;520;50.932;6.962;2023-02-04T15:07:48;11.60;94.70
1063;DHT22;520;50.932;6.962;2023-02-04T15:10:28;11.80;94.30
1063;DHT22;520;50.932;6.962;2023-02-04T15:13:00;12.00;94.10
1063;DHT22;520;50.932;6.962;2023-02-04T15:15:47;12.10;93.10
1063;DHT22;520;50.932;6.962;2023-02-04T15:18:35;11.90;93.30
1063;DHT22;520;50.932;6.962;2023-02-04T15:21:32;11.60;93.50
1063;DHT22;520;50.932;6.962;2023-02-04T15:24:16;11.80;93.30
1063;DHT22;520;50.932;6.962;2023-02-04T15:26:44;12.00;92.90
1063;DHT22;520;50.932;6.962;2023-02-04T15:32:45;11.80;93.00
1063;DHT22;520;50.932;6.962;2023-02-04T15:35:31;11.60;93.00
1063;DHT22;520;50.932;6.962;2023-02-04T15:38:34;11.50;93.40
1063;DHT22;520;50.932;6.962;2023-02-04T15:41:26;11.60;93.90
1063;DHT22;520;50.932;6.962;2023-02-04T15:50:16;11.30;94.00
1063;DHT22;520;50.932;6.962;2023-02-04T15:54:12;11.50;94.40
1063;DHT22;520;50.932;6.962;2023-02-04T15:56:48;11.70;93.50
1063;DHT22;520;50.932;6.962;2023-02-04T15:59:41;11.90;93.30
1063;DHT22;520;50.932;6.962;2023-02-04T16:02:53;12.00;92.70
1063;DHT22;520;50.932;6.962;2023-02-04T16:05:42;11.90;92.50
1063;DHT22;520;50.932;6.962;2023-02-04T16:08:46;11.70;92.60
1063;DHT22;520;50.932;6.962;2023-02-04T16:11:36;11.60;92.90
1063;DHT22;520;50.932;6.962;2023-02-04T16:14:37;11.40;92.90
1063;DHT22;520;50.932;6.962;2023-02-04T16:17:17;11.20;93.00
1063;DHT22;520;50.932;6.962;2023-02-04T16:19:59;11.10;93.30
1063;DHT22;520;50.932;6.962;2023-02-04T16:22:52;11.30;93.00
1063;DHT22;520;50.932;6.962;2023-02-04T16:25:58;11.20;92.60
1063;DHT22;520;50.932;6.962;2023-02-04T16:29:01;11.00;92.30
1063;DHT22;520;50.932;6.962;2023-02-04T16:32:01;11.10;92.50
1063;DHT22;520;50.932;6.962;2023-02-04T16:34:40;11.30;91.90
1063;DHT22;520;50.932;6.962;2023-02-04T16:37:37;11.30;91.20
1063;DHT22;520;50.932;6.962;2023-02-04T16:40:37;11.10;91.20
1063;DHT22;520;50.932;6.962;2023-02-04T16:43:15;11.00;91.60
1063;DHT22;520;50.932;6.962;2023-02-04T16:45:54;11.00;91.80
1063;DHT22;520;50.932;6.962;2023-02-04T16:48:48;10.90;92.00
1063;DHT22;520;50.932;6.962;2023-02-04T16:51:38;10.90;92.30
1063;DHT22;520;50.932;6.962;2023-02-04T16:54:27;10.90;92.60
1063;DHT22;520;50.932;6.962;2023-02-04T16:56:58;10.80;92.80
1063;DHT22;520;50.932;6.962;2023-02-04T16:59:47;10.80;93.10
1063;DHT22;520;50.932;6.962;2023-02-04T17:02:44;10.90;93.30
1063;DHT22;520;50.932;6.962;2023-02-04T17:05:49;10.90;93.30
1063;DHT22;520;50.932;6.962;2023-02-04T17:08:59;10.90;93.50
1063;DHT22;520;50.932;6.962;2023-02-04T17:11:55;11.00;93.80
1063;DHT22;520;50.932;6.962;2023-02-04T17:15:04;11.50;93.40
1063;DHT22;520;50.932;6.962;2023-02-04T17:18:21;11.40;93.00
1063;DHT22;520;50.932;6.962;2023-02-04T17:20:53;11.10;93.20
1063;DHT22;520;50.932;6.962;2023-02-04T17:23:54;11.20;93.90
1063;DHT22;520;50.932;6.962;2023-02-04T17:27:15;11.40;93.80
1063;DHT22;520;50.932;6.962;2023-02-04T17:30:57;11.40;93.70
1063;DHT22;520;50.932;6.962;2023-02-04T17:33:40;11.30;93.80
1063;DHT22;520;50.932;6.962;2023-02-04T17:36:24;11.20;94.10
1063;DHT22;520;50.932;6.962;2023-02-04T17:39:07;11.40;94.30
1063;DHT22;520;50.932;6.962;2023-02-04T17:41:53;11.40;94.10
1063;DHT22;520;50.932;6.962;2023-02-04T17:45:10;11.10;94.30
1063;DHT22;520;50.932;6.962;2023-02-04T17:48:04;10.90;95.00
1063;DHT22;520;50.932;6.962;2023-02-04T17:51:03;11.00;95.30
1063;DHT22;520;50.932;6.962;2023-02-04T17:54:19;11.00;95.20
1063;DHT22;520;50.932;6.962;2023-02-04T18:03:40;11.20;94.90
1063;DHT22;520;50.932;6.962;2023-02-04T18:10:35;10.90;95.50
1063;DHT22;520;50.932;6.962;2023-02-04T18:13:33;10.80;95.70
1063;DHT22;520;50.932;6.962;2023-02-04T18:16:30;11.10;95.70
1063;DHT22;520;50.932;6.962;2023-02-04T18:19:34;10.80;95.40
1063;DHT22;520;50.932;6.962;2023-02-04T18:26:17;10.60;96.00
1063;DHT22;520;50.932;6.962;2023-02-04T18:39:41;10.70;95.70
1063;DHT22;520;50.932;6.962;2023-02-04T18:42:23;10.70;95.90
1063;DHT22;520;50.932;6.962;2023-02-04T18:45:57;10.60;95.90
1063;DHT22;520;50.932;6.962;2023-02-04T18:52:18;10.70;95.90
1063;DHT22;520;50.932;6.962;2023-02-04T18:55:32;10.70;96.20
1063;DHT22;520;50.932;6.962;2023-02-04T18:58:59;11.20;95.80
1063;DHT22;520;50.932;6.962;2023-02-04T19:05:56;10.90;95.70
1063;DHT22;520;50.932;6.962;2023-02-04T19:12:07;10.70;96.30
1063;DHT22;520;50.932;6.962;2023-02-04T19:26:31;10.70;96.70
1063;DHT22;520;50.932;6.962;2023-02-04T19:32:44;10.70;96.80
1063;DHT22;520;50.932;6.962;2023-02-04T19:36:16;10.70;96.80